createdAt,value
2022-09-01T00:01:54.433Z,12.82
2022-09-01T00:04:27.041Z,11.05
2022-09-01T00:06:56.358Z,14.30
2022-09-01T00:09:24.689Z,10.52
2022-09-01T00:11:55.224Z,8.00
2022-09-01T00:14:29.948Z,8.77
2022-09-01T00:16:58.985Z,11.52
2022-09-01T00:19:27.189Z,10.35
2022-09-01T00:21:55.376Z,7.05
2022-09-01T00:24:26.003Z,12.50
2022-09-01T00:26:55.859Z,9.68
2022-09-01T00:29:24.965Z,8.85
2022-09-01T00:31:53.111Z,10.65
2022-09-01T00:34:21.484Z,9.80
2022-09-01T00:36:49.582Z,8.52
2022-09-01T00:39:17.793Z,6.47
2022-09-01T00:41:47.262Z,8.65
2022-09-01T00:44:18.950Z,7.38
2022-09-01T00:46:51.094Z,7.65
2022-09-01T00:49:28.217Z,6.13
2022-09-01T00:51:57.831Z,7.43
2022-09-01T00:54:27.247Z,8.73
2022-09-01T00:56:57.555Z,7.40
2022-09-01T00:59:27.938Z,7.85
2022-09-01T01:01:56.484Z,7.72
2022-09-01T01:04:24.770Z,5.30
2022-09-01T01:06:58.829Z,8.85
2022-09-01T01:09:27.830Z,6.20
2022-09-01T01:12:00.203Z,7.45
2022-09-01T01:14:32.395Z,9.40
2022-09-01T01:17:01.160Z,6.88
2022-09-01T01:19:52.872Z,6.63
2022-09-01T01:22:42.338Z,8.48
2022-09-01T01:25:12.803Z,6.80
2022-09-01T01:27:42.867Z,8.20
2022-09-01T01:30:12.596Z,6.18
2022-09-01T01:32:43.804Z,6.15
2022-09-01T01:35:14.952Z,5.22
2022-09-01T01:37:45.854Z,6.05
2022-09-01T01:40:17.264Z,6.70
2022-09-01T01:42:46.009Z,7.15
2022-09-01T01:45:17.182Z,4.75
2022-09-01T01:47:51.665Z,5.72
2022-09-01T01:50:20.346Z,7.70
2022-09-01T01:52:48.612Z,6.28
2022-09-01T01:55:28.792Z,4.22
2022-09-01T01:57:58.787Z,4.22
2022-09-01T02:00:30.819Z,5.93
2022-09-01T02:02:59.652Z,8.90
2022-09-01T02:05:28.952Z,7.47
2022-09-01T02:07:59.505Z,7.00
2022-09-01T02:10:32.044Z,4.88
2022-09-01T02:13:03.613Z,5.68
2022-09-01T02:15:35.117Z,4.88
2022-09-01T02:18:05.076Z,9.52
2022-09-01T02:20:33.992Z,6.82
2022-09-01T02:23:10.545Z,4.13
2022-09-01T02:26:14.531Z,3.30
2022-09-01T02:28:36.819Z,4.50
2022-09-01T02:31:06.017Z,6.88
2022-09-01T02:33:34.292Z,4.85
2022-09-01T02:36:05.351Z,4.65
2022-09-01T02:38:34.542Z,4.45
2022-09-01T02:41:04.309Z,3.53
2022-09-01T02:43:33.788Z,3.50
2022-09-01T02:46:02.774Z,5.20
2022-09-01T02:48:37.186Z,6.15
2022-09-01T02:51:08.379Z,5.38
2022-09-01T02:53:36.936Z,4.22
2022-09-01T02:56:09.648Z,7.53
2022-09-01T02:58:42.094Z,5.93
2022-09-01T03:01:13.257Z,3.55
2022-09-01T03:03:41.646Z,4.40
2022-09-01T03:06:10.349Z,4.38
2022-09-01T03:08:39.727Z,4.18
2022-09-01T03:11:13.243Z,3.00
2022-09-01T03:13:42.040Z,4.18
2022-09-01T03:16:10.582Z,6.05
2022-09-01T03:18:38.871Z,2.53
2022-09-01T03:21:09.593Z,2.67
2022-09-01T03:23:38.037Z,3.40
2022-09-01T03:26:06.564Z,6.28
2022-09-01T03:28:37.675Z,3.60
2022-09-01T03:31:05.851Z,4.07
2022-09-01T03:33:34.361Z,4.38
2022-09-01T03:36:02.671Z,4.30
2022-09-01T03:38:32.053Z,7.22
2022-09-01T03:41:01.975Z,6.20
2022-09-01T03:43:36.057Z,5.25
2022-09-01T03:46:08.041Z,3.42
2022-09-01T03:48:36.432Z,5.03
2022-09-01T03:51:05.061Z,7.05
2022-09-01T03:53:36.994Z,3.58
2022-09-01T03:56:07.320Z,4.35
2022-09-01T03:58:35.506Z,5.20
2022-09-01T04:01:06.331Z,2.97
2022-09-01T04:03:40.398Z,8.20
2022-09-01T04:06:10.631Z,4.18
2022-09-01T04:08:39.401Z,6.78
2022-09-01T04:11:13.964Z,7.95
2022-09-01T04:13:42.585Z,6.18
2022-09-01T04:16:34.916Z,6.88
2022-09-01T04:19:09.247Z,4.93
2022-09-01T04:21:38.358Z,5.43
2022-09-01T04:24:09.033Z,2.42
2022-09-01T04:26:38.480Z,3.50
2022-09-01T04:29:09.200Z,3.85
2022-09-01T04:31:40.189Z,6.57
2022-09-01T04:34:13.903Z,5.18
2022-09-01T04:36:45.068Z,3.60
2022-09-01T04:39:14.151Z,4.05
2022-09-01T04:41:46.235Z,2.13
2022-09-01T04:44:18.971Z,3.40
2022-09-01T04:46:50.599Z,5.57
2022-09-01T04:49:22.314Z,3.20
2022-09-01T04:51:53.929Z,6.18
2022-09-01T04:54:24.328Z,4.47
2022-09-01T04:56:52.860Z,7.28
2022-09-01T04:59:22.214Z,2.05
2022-09-01T05:02:00.393Z,2.10
2022-09-01T05:04:33.687Z,2.95
2022-09-01T05:07:02.724Z,4.30
2022-09-01T05:09:36.850Z,2.80
2022-09-01T05:12:31.108Z,29.23
2022-09-01T05:14:59.222Z,2.60
2022-09-01T05:17:29.116Z,3.58
2022-09-01T05:19:58.068Z,2.55
2022-09-01T05:22:27.053Z,3.80
2022-09-01T05:25:03.696Z,5.88
2022-09-01T05:27:32.450Z,2.47
2022-09-01T05:30:01.240Z,4.03
2022-09-01T05:32:33.567Z,4.43
2022-09-01T05:35:02.299Z,2.80
2022-09-01T05:37:30.836Z,7.75
2022-09-01T05:39:59.132Z,2.10
2022-09-01T05:42:28.604Z,2.90
2022-09-01T05:44:58.607Z,7.07
2022-09-01T05:47:27.165Z,4.57
2022-09-01T05:49:58.503Z,4.60
2022-09-01T05:52:27.300Z,7.18
2022-09-01T05:55:00.206Z,3.33
2022-09-01T05:57:36.853Z,2.08
2022-09-01T06:00:11.219Z,2.53
2022-09-01T06:02:41.166Z,2.90
2022-09-01T06:05:14.058Z,5.15
2022-09-01T06:07:42.953Z,3.88
2022-09-01T06:10:14.796Z,3.67
2022-09-01T06:12:45.278Z,7.28
2022-09-01T06:15:18.578Z,2.42
2022-09-01T06:17:50.849Z,3.85
2022-09-01T06:20:22.925Z,3.75
2022-09-01T06:22:52.571Z,6.55
2022-09-01T06:25:21.687Z,2.80
2022-09-01T06:27:49.851Z,3.35
2022-09-01T06:30:23.789Z,8.88
2022-09-01T06:32:57.789Z,6.07
2022-09-01T06:35:29.964Z,6.05
2022-09-01T06:38:00.037Z,5.20
2022-09-01T06:40:42.499Z,4.25
2022-09-01T06:43:16.180Z,1.00
2022-09-01T06:45:54.285Z,6.80
2022-09-01T06:48:24.536Z,4.10
2022-09-01T06:51:20.854Z,7.45
2022-09-01T06:53:56.539Z,2.92
2022-09-01T06:59:16.869Z,1.60
2022-09-01T07:01:51.573Z,4.85
2022-09-01T07:04:25.381Z,3.22
2022-09-01T07:07:02.724Z,7.47
2022-09-01T07:10:23.387Z,2.42
2022-09-01T07:13:06.313Z,11.18
2022-09-01T07:18:26.210Z,111.55
2022-09-01T07:21:38.866Z,72.20
2022-09-01T07:24:07.760Z,81.50
2022-09-01T07:26:35.376Z,68.97
2022-09-01T07:34:46.114Z,214.05
2022-09-01T07:38:47.826Z,131.18
2022-09-01T07:39:57.314Z,2.28
2022-09-01T07:42:59.195Z,60.00
2022-09-01T07:49:03.070Z,114.03
2022-09-01T07:51:50.106Z,118.80
2022-09-01T07:54:23.771Z,105.47
2022-09-01T07:56:54.789Z,99.70
2022-09-01T07:59:23.386Z,101.80
2022-09-01T08:01:58.033Z,82.05
2022-09-01T08:04:26.653Z,82.05
2022-09-01T08:06:56.069Z,84.18
2022-09-01T08:09:35.083Z,65.78
2022-09-01T08:12:09.032Z,76.68
2022-09-01T08:14:46.656Z,65.20
2022-09-01T08:17:18.225Z,62.42
2022-09-01T08:20:09.291Z,67.00
2022-09-01T08:23:03.373Z,61.08
2022-09-01T08:25:34.620Z,60.50
2022-09-01T08:28:04.740Z,50.88
2022-09-01T08:30:34.212Z,56.65
2022-09-01T08:33:10.733Z,61.17
2022-09-01T08:35:41.583Z,47.10
2022-09-01T08:38:10.152Z,65.25
2022-09-01T08:40:38.720Z,78.63
2022-09-01T08:43:15.685Z,80.45
2022-09-01T08:45:47.466Z,65.20
2022-09-01T08:51:15.068Z,71.05
2022-09-01T08:54:05.235Z,61.05
2022-09-01T08:56:36.374Z,69.13
2022-09-01T08:59:07.084Z,58.83
2022-09-01T09:02:27.829Z,71.18
2022-09-01T09:05:01.994Z,54.85
2022-09-01T09:07:42.373Z,51.90
2022-09-01T09:10:12.511Z,47.53
2022-09-01T09:12:51.287Z,50.90
2022-09-01T09:15:25.565Z,59.92
2022-09-01T09:18:00.286Z,48.45
2022-09-01T09:20:28.858Z,59.13
2022-09-01T09:22:59.637Z,54.40
2022-09-01T09:25:29.741Z,46.83
2022-09-01T09:28:01.523Z,41.63
2022-09-01T09:30:31.521Z,35.67
2022-09-01T09:35:54.199Z,45.78
2022-09-01T09:38:29.121Z,38.25
2022-09-01T09:41:20.095Z,40.58
2022-09-01T09:43:52.332Z,43.95
2022-09-01T09:46:27.465Z,35.83
2022-09-01T09:49:10.012Z,37.28
2022-09-01T09:51:38.354Z,37.05
2022-09-01T09:54:14.855Z,40.83
2022-09-01T09:56:44.486Z,37.90
2022-09-01T09:59:34.151Z,36.40
2022-09-01T10:02:27.976Z,31.60
2022-09-01T10:04:57.207Z,30.63
2022-09-01T10:07:30.973Z,29.10
2022-09-01T10:10:02.083Z,28.75
2022-09-01T10:12:30.355Z,34.45
2022-09-01T10:15:04.676Z,24.52
2022-09-01T10:17:38.533Z,22.65
2022-09-01T10:20:12.089Z,22.85
2022-09-01T10:22:40.343Z,21.30
2022-09-01T10:25:10.631Z,18.95
2022-09-01T10:27:40.427Z,16.52
2022-09-01T10:30:13.937Z,19.55
2022-09-01T10:32:54.934Z,13.02
2022-09-01T10:35:24.895Z,14.02
2022-09-01T10:37:53.065Z,14.15
2022-09-01T10:40:35.605Z,13.98
2022-09-01T10:43:27.336Z,8.90
2022-09-01T10:45:58.862Z,10.07
2022-09-01T10:48:46.230Z,8.85
2022-09-01T10:51:51.427Z,8.63
2022-09-01T10:54:56.037Z,9.52
2022-09-01T10:57:43.365Z,9.07
2022-09-01T11:03:57.997Z,6.57
2022-09-01T11:07:17.881Z,5.28
2022-09-01T11:10:12.143Z,8.10
2022-09-01T11:13:27.269Z,5.47
2022-09-01T11:15:55.458Z,4.55
2022-09-01T11:18:29.548Z,6.30
2022-09-01T11:21:07.577Z,10.82
2022-09-01T11:23:35.726Z,12.68
2022-09-01T11:26:24.466Z,8.48
2022-09-01T11:28:52.681Z,7.30
2022-09-01T11:31:24.422Z,8.32
2022-09-01T11:33:57.573Z,5.60
2022-09-01T11:36:30.097Z,8.13
2022-09-01T11:39:04.165Z,7.47
2022-09-01T11:41:35.336Z,4.53
2022-09-01T11:44:05.156Z,4.88
2022-09-01T11:46:34.860Z,8.40
2022-09-01T11:49:06.661Z,4.10
2022-09-01T11:51:45.922Z,4.55
2022-09-01T11:54:14.189Z,3.42
2022-09-01T11:56:42.352Z,4.60
2022-09-01T11:59:10.546Z,4.03
2022-09-01T12:01:39.312Z,6.88
2022-09-01T12:04:22.319Z,7.85
2022-09-01T12:06:59.658Z,4.43
2022-09-01T12:09:37.898Z,7.43
2022-09-01T12:12:07.019Z,9.27
2022-09-01T12:14:55.103Z,3.55
2022-09-01T12:17:23.527Z,7.68
2022-09-01T12:19:51.867Z,6.25
2022-09-01T12:22:22.369Z,4.32
2022-09-01T12:24:51.748Z,3.88
2022-09-01T12:27:20.286Z,6.10
2022-09-01T12:29:50.719Z,4.10
2022-09-01T12:32:19.741Z,6.07
2022-09-01T12:34:49.129Z,6.35
2022-09-01T12:37:24.328Z,3.03
2022-09-01T12:39:54.448Z,2.75
2022-09-01T12:42:28.331Z,4.47
2022-09-01T12:44:57.663Z,9.90
2022-09-01T12:47:50.964Z,7.20
2022-09-01T12:50:44.834Z,7.80
2022-09-01T12:53:25.784Z,3.58
2022-09-01T12:56:03.298Z,6.90
2022-09-01T12:58:31.953Z,8.90
2022-09-01T13:01:02.644Z,4.13
2022-09-01T13:03:31.004Z,4.90
2022-09-01T13:06:03.047Z,4.63
2022-09-01T13:08:33.852Z,6.95
2022-09-01T13:11:04.209Z,9.07
2022-09-01T13:13:32.454Z,9.73
2022-09-01T13:16:01.627Z,6.88
2022-09-01T13:18:30.371Z,3.10
2022-09-01T13:20:59.001Z,3.20
2022-09-01T13:23:27.237Z,4.88
2022-09-01T13:25:58.963Z,5.93
2022-09-01T13:28:27.115Z,2.20
2022-09-01T13:36:52.121Z,2.60
2022-09-01T13:39:21.271Z,5.60
2022-09-01T13:41:50.793Z,3.72
2022-09-01T13:44:19.427Z,6.75
2022-09-01T13:49:44.962Z,3.58
2022-09-01T13:52:24.169Z,2.42
2022-09-01T13:54:52.559Z,4.07
2022-09-01T13:57:22.122Z,5.30
2022-09-01T13:59:50.290Z,2.28
2022-09-01T14:02:18.500Z,4.60
2022-09-01T14:04:47.409Z,5.80
2022-09-01T14:07:16.440Z,5.20
2022-09-01T14:09:44.563Z,3.45
2022-09-01T14:12:12.715Z,5.13
2022-09-01T14:17:30.462Z,3.40
2022-09-01T14:19:58.615Z,3.95
2022-09-01T14:22:26.710Z,2.15
2022-09-01T14:24:54.944Z,5.22
2022-09-01T14:27:23.040Z,1.95
2022-09-01T14:29:55.046Z,2.63
2022-09-01T14:32:27.075Z,3.22
2022-09-01T14:34:55.525Z,2.67
2022-09-01T14:37:23.713Z,2.22
2022-09-01T14:39:51.855Z,2.45
2022-09-01T14:42:20.118Z,4.50
2022-09-01T14:44:48.432Z,3.78
2022-09-01T14:47:19.889Z,1.95
2022-09-01T14:49:49.125Z,7.20
2022-09-01T14:52:17.848Z,2.10
2022-09-01T14:54:46.183Z,1.98
2022-09-01T14:57:36.598Z,1.58
2022-09-01T15:00:03.473Z,2.25
2022-09-01T15:02:33.350Z,1.65
2022-09-01T15:05:01.587Z,3.90
2022-09-01T15:07:29.776Z,1.92
2022-09-01T15:09:58.886Z,0.95
2022-09-01T15:12:30.831Z,1.08
2022-09-01T15:14:59.000Z,3.85
2022-09-01T15:17:27.217Z,2.25
2022-09-01T15:20:16.757Z,2.67
2022-09-01T15:22:44.860Z,4.25
2022-09-01T15:25:12.979Z,1.38
2022-09-01T15:27:41.531Z,2.05
2022-09-01T15:30:15.616Z,2.13
2022-09-01T15:32:43.933Z,1.88
2022-09-01T15:35:13.684Z,2.15
2022-09-01T15:37:41.821Z,1.92
2022-09-01T15:40:10.742Z,3.80
2022-09-01T15:42:39.053Z,3.08
2022-09-01T15:45:08.748Z,5.85
2022-09-01T15:47:38.319Z,0.88
2022-09-01T15:50:08.381Z,3.45
2022-09-01T15:52:50.968Z,5.03
2022-09-01T15:55:20.222Z,0.90
2022-09-01T15:57:48.388Z,0.80
2022-09-01T16:00:17.017Z,1.90
2022-09-01T16:02:45.661Z,3.08
2022-09-01T16:05:13.851Z,4.05
2022-09-01T16:07:42.490Z,2.75
2022-09-01T16:10:12.996Z,1.58
2022-09-01T16:12:43.980Z,1.30
2022-09-01T16:15:13.583Z,2.22
2022-09-01T16:17:52.722Z,2.63
2022-09-01T16:20:21.728Z,3.47
2022-09-01T16:22:53.746Z,1.85
2022-09-01T16:25:27.693Z,1.10
2022-09-01T16:27:56.281Z,0.88
2022-09-01T16:30:28.308Z,0.75
2022-09-01T16:32:58.970Z,1.52
2022-09-01T16:35:44.669Z,3.33
2022-09-01T16:38:16.566Z,1.50
2022-09-01T16:40:48.364Z,2.35
2022-09-01T16:43:19.382Z,4.75
2022-09-01T16:45:51.974Z,6.72
2022-09-01T16:48:22.893Z,8.20
2022-09-01T16:50:54.656Z,3.53
2022-09-01T16:53:36.893Z,2.28
2022-09-01T16:56:08.500Z,1.35
2022-09-01T16:58:49.053Z,4.18
2022-09-01T17:01:27.311Z,3.03
2022-09-01T17:03:59.320Z,2.45
2022-09-01T17:06:31.896Z,0.93
2022-09-01T17:09:08.059Z,4.55
2022-09-01T17:11:40.454Z,2.17
2022-09-01T17:14:08.862Z,2.83
2022-09-01T17:16:40.773Z,1.23
2022-09-01T17:19:10.418Z,3.83
2022-09-01T17:21:41.789Z,2.33
2022-09-01T17:24:14.914Z,0.63
2022-09-01T17:26:50.791Z,0.98
2022-09-01T17:29:23.274Z,1.60
2022-09-01T17:31:58.054Z,0.88
2022-09-01T17:34:31.803Z,1.95
2022-09-01T17:37:06.438Z,1.83
2022-09-01T17:39:40.513Z,0.85
2022-09-01T17:42:15.010Z,1.60
2022-09-01T17:44:46.572Z,2.70
2022-09-01T17:47:19.585Z,4.47
2022-09-01T17:49:51.862Z,4.03
2022-09-01T17:52:23.896Z,1.45
2022-09-01T17:54:54.901Z,1.10
2022-09-01T17:57:28.638Z,1.80
2022-09-01T17:59:59.617Z,3.40
2022-09-01T18:02:41.553Z,2.25
2022-09-01T18:05:10.637Z,1.98
2022-09-01T18:08:07.353Z,0.95
2022-09-01T18:10:39.397Z,1.58
2022-09-01T18:13:11.511Z,1.40
2022-09-01T18:15:44.499Z,0.73
2022-09-01T18:18:34.036Z,1.33
2022-09-01T18:21:04.827Z,2.45
2022-09-01T18:23:33.727Z,1.38
2022-09-01T18:26:07.152Z,1.70
2022-09-01T18:28:38.520Z,5.70
2022-09-01T18:31:11.394Z,3.35
2022-09-01T18:33:42.032Z,1.83
2022-09-01T18:36:17.150Z,3.00
2022-09-01T18:38:47.362Z,1.40
2022-09-01T18:41:29.637Z,1.33
2022-09-01T18:44:03.481Z,3.15
2022-09-01T18:46:35.067Z,3.00
2022-09-01T18:49:09.257Z,1.63
2022-09-01T18:51:46.594Z,2.25
2022-09-01T18:54:17.251Z,1.85
2022-09-01T18:56:48.573Z,2.17
2022-09-01T18:59:37.046Z,4.78
2022-09-01T19:02:11.202Z,9.50
2022-09-01T19:04:41.096Z,7.47
2022-09-01T19:07:14.172Z,7.28
2022-09-01T19:09:45.306Z,8.75
2022-09-01T19:12:21.696Z,12.00
2022-09-01T19:14:56.635Z,10.10
2022-09-01T19:17:55.831Z,4.45
2022-09-01T19:20:24.933Z,6.15
2022-09-01T19:22:56.390Z,5.65
2022-09-01T19:25:37.677Z,6.55
2022-09-01T19:28:12.949Z,2.95
2022-09-01T19:30:44.781Z,6.25
2022-09-01T19:33:17.430Z,5.00
2022-09-01T19:35:46.655Z,4.90
2022-09-01T19:38:18.890Z,4.75
2022-09-01T19:40:48.016Z,8.88
2022-09-01T19:43:18.142Z,6.25
2022-09-01T19:45:57.178Z,2.75
2022-09-01T19:48:28.201Z,4.40
2022-09-01T19:50:57.663Z,6.70
2022-09-01T19:53:33.866Z,2.78
2022-09-01T19:56:05.716Z,6.38
2022-09-01T19:58:41.307Z,4.93
2022-09-01T20:01:12.634Z,4.18
2022-09-01T20:03:41.777Z,4.88
2022-09-01T20:06:11.505Z,3.65
2022-09-01T20:08:42.612Z,5.07
2022-09-01T20:11:12.051Z,4.07
2022-09-01T20:13:47.390Z,3.08
2022-09-01T20:16:23.909Z,2.80
2022-09-01T20:18:54.746Z,5.47
2022-09-01T20:21:23.034Z,3.15
2022-09-01T20:23:54.373Z,2.40
2022-09-01T20:26:26.862Z,3.85
2022-09-01T20:28:59.063Z,3.53
2022-09-01T20:31:30.199Z,7.75
2022-09-01T20:34:01.101Z,10.73
2022-09-01T20:36:32.510Z,8.32
2022-09-01T20:39:21.652Z,4.85
2022-09-01T20:41:52.662Z,7.28
2022-09-01T20:44:24.771Z,9.55
2022-09-01T20:46:55.218Z,12.25
2022-09-01T20:49:23.396Z,4.38
2022-09-01T20:51:54.914Z,6.03
2022-09-01T20:54:30.391Z,8.50
2022-09-01T20:57:05.230Z,5.03
2022-09-01T20:59:36.743Z,10.32
2022-09-01T21:02:10.990Z,9.07
2022-09-01T21:04:45.676Z,4.30
2022-09-01T21:07:16.575Z,6.28
2022-09-01T21:09:50.225Z,5.18
2022-09-01T21:12:22.943Z,8.00
2022-09-01T21:14:56.213Z,8.57
2022-09-01T21:17:30.874Z,6.00
2022-09-01T21:20:04.055Z,13.18
2022-09-01T21:22:32.249Z,8.60
2022-09-01T21:25:00.626Z,8.45
2022-09-01T21:27:33.159Z,4.13
2022-09-01T21:30:03.064Z,6.97
2022-09-01T21:32:33.639Z,7.50
2022-09-01T21:35:01.869Z,7.75
2022-09-01T21:37:30.003Z,2.33
2022-09-01T21:39:58.233Z,6.78
2022-09-01T21:42:27.453Z,11.10
2022-09-01T21:44:55.831Z,10.23
2022-09-01T21:47:24.093Z,11.90
2022-09-01T21:49:53.602Z,9.77
2022-09-01T21:52:21.982Z,11.30
2022-09-01T21:54:50.101Z,9.95
2022-09-01T21:57:18.379Z,15.13
2022-09-01T21:59:46.463Z,18.10
2022-09-01T22:02:14.618Z,11.80
2022-09-01T22:04:42.831Z,13.63
2022-09-01T22:07:15.259Z,13.18
2022-09-01T22:09:43.677Z,15.00
2022-09-01T22:12:11.991Z,24.65
2022-09-01T22:14:40.194Z,9.45
2022-09-01T22:17:08.413Z,12.02
2022-09-01T22:19:36.695Z,11.65
2022-09-01T22:22:04.983Z,11.20
2022-09-01T22:24:34.486Z,10.38
2022-09-01T22:27:02.709Z,13.63
2022-09-01T22:29:30.890Z,12.00
2022-09-01T22:32:00.224Z,14.57
2022-09-01T22:34:28.386Z,13.68
2022-09-01T22:36:56.482Z,8.32
2022-09-01T22:39:25.287Z,11.93
2022-09-01T22:41:55.536Z,7.55
2022-09-01T22:44:23.683Z,14.02
2022-09-01T22:46:51.835Z,9.32
2022-09-01T22:49:20.102Z,13.15
2022-09-01T22:51:48.610Z,13.98
2022-09-01T22:54:16.994Z,12.20
2022-09-01T22:56:45.199Z,15.65
2022-09-01T22:59:16.156Z,12.23
2022-09-01T23:01:45.907Z,8.38
2022-09-01T23:04:14.508Z,9.73
2022-09-01T23:06:43.808Z,13.63
2022-09-01T23:09:11.944Z,6.72
2022-09-01T23:11:40.075Z,16.25
2022-09-01T23:14:08.300Z,9.95
2022-09-01T23:16:37.890Z,15.73
2022-09-01T23:19:06.330Z,9.68
2022-09-01T23:21:36.050Z,10.30
2022-09-01T23:24:04.674Z,5.43
2022-09-01T23:26:33.124Z,10.30
2022-09-01T23:29:01.324Z,14.18
2022-09-01T23:31:31.053Z,9.13
2022-09-01T23:34:00.617Z,6.90
2022-09-01T23:36:29.261Z,8.52
2022-09-01T23:38:57.457Z,7.90
2022-09-01T23:41:28.748Z,7.13
2022-09-01T23:43:57.132Z,7.47
2022-09-01T23:46:26.138Z,7.22
2022-09-01T23:48:54.331Z,8.45
2022-09-01T23:51:24.626Z,10.65
2022-09-01T23:53:52.854Z,8.25
2022-09-01T23:56:22.052Z,9.50
2022-09-01T23:58:50.265Z,5.63
